RPB7611 SKSM-SKRG
Flight info
| Callsign | RPB7611 |
|---|---|
| Flight time | 0h 54m |
| Altitude | 35000 |
| Route | MGN3C MGN UW3 SERVO BIVIG BIVI3C |
| Aircraft | B738/M-SDE3FGHIRWY/S |
Departure
| Time | 2026-05-09 20:02 |
|---|---|
| Airport | Simón Bolívar International Airport (SKSM) |
Arrival
| Time | 2026-05-09 20:56 |
|---|---|
| Airport | Jose Maria Córdova International Airport (SKRG) |
| Time | Latitude | Longitude | Altitude | Speed | Heading |
|---|---|---|---|---|---|
| 2026-05-09 19:49 | 11.11852 | -74.23216 | 30 ft | 0 kts | 270° |
| 2026-05-09 19:52 | 11.11852 | -74.23215 | 30 ft | 1 kts | 270° |
| 2026-05-09 19:52 | 11.11852 | -74.23191 | 30 ft | 4 kts | 270° |
| 2026-05-09 19:52 | 11.11852 | -74.23171 | 30 ft | 4 kts | 239° |
| 2026-05-09 19:53 | 11.11869 | -74.23160 | 30 ft | 4 kts | 192° |
| 2026-05-09 19:53 | 11.11885 | -74.23156 | 30 ft | 0 kts | 192° |
| 2026-05-09 19:58 | 11.11875 | -74.23158 | 30 ft | 5 kts | 192° |
| 2026-05-09 19:58 | 11.11797 | -74.23164 | 30 ft | 13 kts | 179° |
| 2026-05-09 19:59 | 11.11745 | -74.23154 | 28 ft | 3 kts | 137° |
| 2026-05-09 19:59 | 11.11744 | -74.23120 | 30 ft | 10 kts | 86° |
| 2026-05-09 19:59 | 11.11707 | -74.23053 | 28 ft | 13 kts | 179° |
| 2026-05-09 19:59 | 11.11578 | -74.23054 | 28 ft | 24 kts | 178° |
| 2026-05-09 20:00 | 11.11390 | -74.23050 | 29 ft | 26 kts | 179° |
| 2026-05-09 20:00 | 11.11292 | -74.23045 | 29 ft | 9 kts | 165° |
| 2026-05-09 20:00 | 11.11239 | -74.23023 | 29 ft | 7 kts | 169° |
| 2026-05-09 20:00 | 11.11221 | -74.23047 | 29 ft | 5 kts | 287° |
| 2026-05-09 20:01 | 11.11258 | -74.23049 | 29 ft | 7 kts | 14° |
| 2026-05-09 20:01 | 11.11333 | -74.23049 | 29 ft | 42 kts | 359° |
| 2026-05-09 20:01 | 11.11937 | -74.23062 | 30 ft | 129 kts | 359° |
| 2026-05-09 20:01 | 11.12995 | -74.23085 | 497 ft | 154 kts | 359° |
| 2026-05-09 20:02 | 11.13998 | -74.23417 | 1389 ft | 166 kts | 321° |
| 2026-05-09 20:02 | 11.14683 | -74.24532 | 1680 ft | 210 kts | 288° |
| 2026-05-09 20:02 | 11.14807 | -74.26088 | 2039 ft | 237 kts | 265° |
| 2026-05-09 20:03 | 11.13721 | -74.29498 | 3117 ft | 266 kts | 252° |
| 2026-05-09 20:03 | 11.13062 | -74.31371 | 3464 ft | 295 kts | 245° |
| 2026-05-09 20:03 | 11.12151 | -74.33256 | 4460 ft | 294 kts | 238° |
| 2026-05-09 20:03 | 11.11054 | -74.35002 | 5555 ft | 292 kts | 231° |
| 2026-05-09 20:04 | 11.09762 | -74.36616 | 6430 ft | 296 kts | 224° |
| 2026-05-09 20:04 | 11.08301 | -74.38078 | 7281 ft | 300 kts | 218° |
| 2026-05-09 20:04 | 11.06656 | -74.39387 | 8169 ft | 302 kts | 211° |
| 2026-05-09 20:04 | 11.04855 | -74.40507 | 9013 ft | 303 kts | 204° |
| 2026-05-09 20:05 | 11.02943 | -74.41403 | 9857 ft | 304 kts | 198° |
| 2026-05-09 20:05 | 11.00899 | -74.42094 | 10416 ft | 317 kts | 192° |
| 2026-05-09 20:05 | 10.98653 | -74.42543 | 10635 ft | 339 kts | 185° |
| 2026-05-09 20:05 | 10.96272 | -74.42720 | 11218 ft | 347 kts | 179° |
| 2026-05-09 20:06 | 10.93845 | -74.42650 | 11958 ft | 351 kts | 179° |
| 2026-05-09 20:06 | 10.91413 | -74.43005 | 12712 ft | 356 kts | 191° |
| 2026-05-09 20:06 | 10.88989 | -74.43614 | 13443 ft | 361 kts | 193° |
| 2026-05-09 20:06 | 10.86553 | -74.44276 | 14166 ft | 365 kts | 194° |
| 2026-05-09 20:07 | 10.84084 | -74.44954 | 14852 ft | 369 kts | 193° |
| 2026-05-09 20:07 | 10.81593 | -74.45629 | 15531 ft | 373 kts | 193° |
| 2026-05-09 20:07 | 10.79074 | -74.46300 | 16200 ft | 376 kts | 193° |
| 2026-05-09 20:07 | 10.76525 | -74.46970 | 16851 ft | 380 kts | 193° |
| 2026-05-09 20:08 | 10.73953 | -74.47640 | 17472 ft | 384 kts | 193° |
| 2026-05-09 20:08 | 10.68720 | -74.48987 | 18655 ft | 391 kts | 193° |
| 2026-05-09 20:08 | 10.66071 | -74.49667 | 19234 ft | 394 kts | 193° |
| 2026-05-09 20:09 | 10.63436 | -74.50342 | 19778 ft | 397 kts | 193° |
| 2026-05-09 20:09 | 10.60743 | -74.51032 | 20288 ft | 401 kts | 193° |
| 2026-05-09 20:09 | 10.58027 | -74.51727 | 20820 ft | 404 kts | 193° |
| 2026-05-09 20:09 | 10.55296 | -74.52426 | 21355 ft | 406 kts | 193° |
| 2026-05-09 20:10 | 10.52547 | -74.53131 | 21816 ft | 410 kts | 193° |
| 2026-05-09 20:10 | 10.49764 | -74.53844 | 22273 ft | 413 kts | 192° |
| 2026-05-09 20:10 | 10.46968 | -74.54559 | 22757 ft | 416 kts | 192° |
| 2026-05-09 20:10 | 10.44151 | -74.55279 | 23236 ft | 418 kts | 192° |
| 2026-05-09 20:11 | 10.41322 | -74.56002 | 23651 ft | 421 kts | 192° |
| 2026-05-09 20:11 | 10.38465 | -74.56732 | 24044 ft | 425 kts | 192° |
| 2026-05-09 20:11 | 10.35593 | -74.57465 | 24470 ft | 427 kts | 192° |
| 2026-05-09 20:11 | 10.32709 | -74.58202 | 24879 ft | 429 kts | 192° |
| 2026-05-09 20:12 | 10.29799 | -74.58945 | 25256 ft | 432 kts | 193° |
| 2026-05-09 20:12 | 10.26871 | -74.59693 | 25628 ft | 435 kts | 193° |
| 2026-05-09 20:12 | 10.23931 | -74.60445 | 26005 ft | 437 kts | 193° |
| 2026-05-09 20:12 | 10.20971 | -74.61201 | 26374 ft | 440 kts | 193° |
| 2026-05-09 20:13 | 10.17996 | -74.61961 | 26729 ft | 442 kts | 193° |
| 2026-05-09 20:13 | 10.15004 | -74.62725 | 27080 ft | 445 kts | 193° |
| 2026-05-09 20:13 | 10.11990 | -74.63494 | 27426 ft | 447 kts | 193° |
| 2026-05-09 20:13 | 10.08967 | -74.64266 | 27772 ft | 450 kts | 193° |
| 2026-05-09 20:14 | 10.05925 | -74.65043 | 28118 ft | 452 kts | 193° |
| 2026-05-09 20:14 | 10.02865 | -74.65824 | 28454 ft | 454 kts | 193° |
| 2026-05-09 20:14 | 9.99790 | -74.66608 | 28766 ft | 457 kts | 193° |
| 2026-05-09 20:14 | 9.96740 | -74.67385 | 29097 ft | 458 kts | 193° |
| 2026-05-09 20:15 | 9.93645 | -74.68174 | 29421 ft | 460 kts | 193° |
| 2026-05-09 20:15 | 9.90529 | -74.68968 | 29706 ft | 463 kts | 193° |
| 2026-05-09 20:15 | 9.87426 | -74.69760 | 29977 ft | 465 kts | 194° |
| 2026-05-09 20:15 | 9.84274 | -74.70562 | 30251 ft | 467 kts | 194° |
| 2026-05-09 20:16 | 9.81117 | -74.71366 | 30545 ft | 469 kts | 194° |
| 2026-05-09 20:16 | 9.77945 | -74.72174 | 30829 ft | 471 kts | 194° |
| 2026-05-09 20:16 | 9.74762 | -74.72985 | 31091 ft | 473 kts | 194° |
| 2026-05-09 20:16 | 9.71567 | -74.73799 | 31342 ft | 475 kts | 194° |
| 2026-05-09 20:17 | 9.68358 | -74.74616 | 31593 ft | 476 kts | 194° |
| 2026-05-09 20:17 | 9.65164 | -74.75429 | 31854 ft | 478 kts | 194° |
| 2026-05-09 20:17 | 9.61940 | -74.76249 | 32182 ft | 477 kts | 194° |
| 2026-05-09 20:17 | 9.58728 | -74.77067 | 32574 ft | 475 kts | 194° |
| 2026-05-09 20:18 | 9.55569 | -74.77870 | 32901 ft | 474 kts | 193° |
| 2026-05-09 20:18 | 9.52366 | -74.78684 | 33172 ft | 475 kts | 194° |
| 2026-05-09 20:18 | 9.49117 | -74.79511 | 33477 ft | 475 kts | 194° |
| 2026-05-09 20:18 | 9.45957 | -74.80314 | 33843 ft | 473 kts | 194° |
| 2026-05-09 20:19 | 9.42771 | -74.81124 | 34217 ft | 472 kts | 194° |
| 2026-05-09 20:19 | 9.39585 | -74.81934 | 34548 ft | 471 kts | 194° |
| 2026-05-09 20:19 | 9.36408 | -74.82741 | 34838 ft | 471 kts | 194° |
| 2026-05-09 20:19 | 9.33227 | -74.83549 | 35132 ft | 471 kts | 194° |
| 2026-05-09 20:20 | 9.30050 | -74.84357 | 35405 ft | 471 kts | 194° |
| 2026-05-09 20:20 | 9.26850 | -74.85105 | 35712 ft | 471 kts | 191° |
| 2026-05-09 20:20 | 9.23718 | -74.85660 | 36020 ft | 469 kts | 189° |
| 2026-05-09 20:20 | 9.20486 | -74.86139 | 36311 ft | 468 kts | 188° |
| 2026-05-09 20:21 | 9.17256 | -74.86586 | 36540 ft | 469 kts | 188° |
| 2026-05-09 20:21 | 9.14018 | -74.87038 | 36717 ft | 470 kts | 188° |
| 2026-05-09 20:21 | 9.10783 | -74.87502 | 37082 ft | 467 kts | 188° |
| 2026-05-09 20:21 | 9.07679 | -74.87962 | 37597 ft | 459 kts | 188° |
| 2026-05-09 20:22 | 9.04536 | -74.88438 | 37987 ft | 456 kts | 189° |
| 2026-05-09 20:22 | 9.01394 | -74.88922 | 38130 ft | 458 kts | 189° |
| 2026-05-09 20:22 | 8.98238 | -74.89412 | 38229 ft | 460 kts | 189° |
| 2026-05-09 20:22 | 8.95067 | -74.89905 | 38420 ft | 461 kts | 189° |
| 2026-05-09 20:23 | 8.91903 | -74.90397 | 38672 ft | 459 kts | 189° |
| 2026-05-09 20:23 | 8.85585 | -74.91378 | 38726 ft | 464 kts | 189° |
| 2026-05-09 20:24 | 8.79210 | -74.92364 | 38712 ft | 461 kts | 189° |
| 2026-05-09 20:24 | 8.72909 | -74.93338 | 38716 ft | 456 kts | 189° |
| 2026-05-09 20:25 | 8.66647 | -74.94307 | 38721 ft | 453 kts | 189° |
| 2026-05-09 20:25 | 8.60419 | -74.95269 | 38725 ft | 452 kts | 189° |
| 2026-05-09 20:26 | 8.54194 | -74.96230 | 38722 ft | 453 kts | 189° |
| 2026-05-09 20:26 | 8.47962 | -74.97193 | 38728 ft | 453 kts | 189° |
| 2026-05-09 20:27 | 8.41719 | -74.98157 | 38735 ft | 454 kts | 189° |
| 2026-05-09 20:27 | 8.35465 | -74.99124 | 38737 ft | 455 kts | 189° |
| 2026-05-09 20:28 | 8.29186 | -75.00093 | 38734 ft | 457 kts | 189° |
| 2026-05-09 20:28 | 8.22880 | -75.01065 | 38738 ft | 459 kts | 189° |
| 2026-05-09 20:29 | 8.13444 | -75.02518 | 38730 ft | 460 kts | 189° |
| 2026-05-09 20:29 | 8.07082 | -75.03498 | 38731 ft | 459 kts | 189° |
| 2026-05-09 20:30 | 8.00766 | -75.04472 | 38727 ft | 458 kts | 189° |
| 2026-05-09 20:30 | 7.94502 | -75.05439 | 38731 ft | 457 kts | 189° |
| 2026-05-09 20:31 | 7.88218 | -75.06406 | 38730 ft | 456 kts | 189° |
| 2026-05-09 20:31 | 7.81943 | -75.07373 | 38738 ft | 455 kts | 189° |
| 2026-05-09 20:32 | 7.75688 | -75.08336 | 38738 ft | 454 kts | 189° |
| 2026-05-09 20:32 | 7.69455 | -75.09292 | 38798 ft | 452 kts | 189° |
| 2026-05-09 20:33 | 7.63234 | -75.10236 | 38812 ft | 451 kts | 189° |
| 2026-05-09 20:33 | 7.57017 | -75.11179 | 38819 ft | 452 kts | 189° |
| 2026-05-09 20:34 | 7.50830 | -75.12115 | 38827 ft | 452 kts | 189° |
| 2026-05-09 20:34 | 7.47708 | -75.12587 | 38523 ft | 458 kts | 189° |
| 2026-05-09 20:34 | 7.44548 | -75.13065 | 38023 ft | 459 kts | 189° |
| 2026-05-09 20:35 | 7.41394 | -75.13544 | 37415 ft | 458 kts | 189° |
| 2026-05-09 20:35 | 7.39309 | -75.13860 | 37021 ft | 457 kts | 189° |
| 2026-05-09 20:35 | 7.36164 | -75.14339 | 36408 ft | 457 kts | 189° |
| 2026-05-09 20:35 | 7.31958 | -75.14976 | 35551 ft | 457 kts | 189° |
| 2026-05-09 20:36 | 7.29867 | -75.15293 | 35083 ft | 458 kts | 188° |
| 2026-05-09 20:36 | 7.26709 | -75.15771 | 34407 ft | 460 kts | 188° |
| 2026-05-09 20:36 | 7.23553 | -75.16249 | 33928 ft | 456 kts | 188° |
| 2026-05-09 20:36 | 7.20434 | -75.16721 | 33428 ft | 452 kts | 188° |
| 2026-05-09 20:37 | 7.17329 | -75.17192 | 32940 ft | 449 kts | 188° |
| 2026-05-09 20:37 | 7.14251 | -75.17658 | 32453 ft | 446 kts | 188° |
| 2026-05-09 20:37 | 7.11193 | -75.18121 | 31970 ft | 443 kts | 188° |
| 2026-05-09 20:37 | 7.08148 | -75.18582 | 31489 ft | 440 kts | 188° |
| 2026-05-09 20:38 | 7.05129 | -75.19039 | 31015 ft | 437 kts | 188° |
| 2026-05-09 20:38 | 7.02130 | -75.19478 | 30536 ft | 434 kts | 185° |
| 2026-05-09 20:38 | 6.99125 | -75.19558 | 30023 ft | 431 kts | 177° |
| 2026-05-09 20:38 | 6.96147 | -75.19411 | 29535 ft | 427 kts | 175° |
| 2026-05-09 20:39 | 6.93185 | -75.19201 | 29034 ft | 425 kts | 175° |
| 2026-05-09 20:39 | 6.90285 | -75.18992 | 28548 ft | 422 kts | 175° |
| 2026-05-09 20:39 | 6.87363 | -75.18800 | 28060 ft | 419 kts | 176° |
| 2026-05-09 20:39 | 6.84465 | -75.18627 | 27578 ft | 416 kts | 176° |
| 2026-05-09 20:40 | 6.81588 | -75.18470 | 27096 ft | 413 kts | 177° |
| 2026-05-09 20:40 | 6.78732 | -75.18321 | 26632 ft | 409 kts | 177° |
| 2026-05-09 20:40 | 6.75897 | -75.18178 | 26165 ft | 406 kts | 177° |
| 2026-05-09 20:40 | 6.73086 | -75.18037 | 25700 ft | 403 kts | 177° |
| 2026-05-09 20:41 | 6.70302 | -75.17897 | 25236 ft | 400 kts | 178° |
| 2026-05-09 20:41 | 6.67531 | -75.17758 | 24774 ft | 397 kts | 178° |
| 2026-05-09 20:41 | 6.64789 | -75.17621 | 24314 ft | 393 kts | 178° |
| 2026-05-09 20:41 | 6.62072 | -75.17484 | 23867 ft | 389 kts | 178° |
| 2026-05-09 20:42 | 6.59378 | -75.17349 | 23414 ft | 386 kts | 178° |
| 2026-05-09 20:42 | 6.56699 | -75.17215 | 22969 ft | 383 kts | 178° |
| 2026-05-09 20:42 | 6.54043 | -75.17081 | 22525 ft | 381 kts | 178° |
| 2026-05-09 20:42 | 6.51408 | -75.16948 | 22079 ft | 378 kts | 178° |
| 2026-05-09 20:43 | 6.48792 | -75.16817 | 21644 ft | 376 kts | 178° |
| 2026-05-09 20:43 | 6.46184 | -75.16685 | 21203 ft | 374 kts | 178° |
| 2026-05-09 20:43 | 6.43594 | -75.16555 | 20766 ft | 371 kts | 178° |
| 2026-05-09 20:43 | 6.41019 | -75.16427 | 20334 ft | 369 kts | 178° |
| 2026-05-09 20:44 | 6.38480 | -75.16593 | 19894 ft | 364 kts | 193° |
| 2026-05-09 20:44 | 6.36042 | -75.17234 | 19520 ft | 361 kts | 196° |
| 2026-05-09 20:44 | 6.33636 | -75.17919 | 19080 ft | 358 kts | 196° |
| 2026-05-09 20:44 | 6.31275 | -75.18596 | 18666 ft | 356 kts | 196° |
| 2026-05-09 20:45 | 6.28900 | -75.19271 | 18237 ft | 353 kts | 196° |
| 2026-05-09 20:45 | 6.26537 | -75.19932 | 17806 ft | 351 kts | 195° |
| 2026-05-09 20:45 | 6.24206 | -75.20577 | 17633 ft | 342 kts | 195° |
| 2026-05-09 20:45 | 6.21944 | -75.21199 | 17427 ft | 334 kts | 195° |
| 2026-05-09 20:46 | 6.19715 | -75.21806 | 17173 ft | 328 kts | 195° |
| 2026-05-09 20:46 | 6.17540 | -75.22401 | 16995 ft | 320 kts | 195° |
| 2026-05-09 20:46 | 6.15392 | -75.22987 | 16645 ft | 319 kts | 195° |
| 2026-05-09 20:46 | 6.13258 | -75.23568 | 16319 ft | 317 kts | 195° |
| 2026-05-09 20:47 | 6.11130 | -75.24148 | 16000 ft | 315 kts | 194° |
| 2026-05-09 20:47 | 6.09011 | -75.24725 | 15655 ft | 314 kts | 194° |
| 2026-05-09 20:47 | 6.06906 | -75.25298 | 15325 ft | 313 kts | 194° |
| 2026-05-09 20:47 | 6.04812 | -75.25867 | 14990 ft | 311 kts | 194° |
| 2026-05-09 20:48 | 6.02725 | -75.26435 | 14639 ft | 310 kts | 194° |
| 2026-05-09 20:48 | 6.00650 | -75.27001 | 14300 ft | 308 kts | 194° |
| 2026-05-09 20:48 | 5.98612 | -75.27555 | 13943 ft | 304 kts | 194° |
| 2026-05-09 20:48 | 5.96602 | -75.28104 | 13652 ft | 295 kts | 194° |
| 2026-05-09 20:49 | 5.94673 | -75.28630 | 13518 ft | 280 kts | 193° |
| 2026-05-09 20:49 | 5.92840 | -75.29126 | 13367 ft | 266 kts | 193° |
| 2026-05-09 20:49 | 5.91082 | -75.29608 | 13265 ft | 257 kts | 193° |
| 2026-05-09 20:49 | 5.89412 | -75.30176 | 13154 ft | 252 kts | 209° |
| 2026-05-09 20:50 | 5.88181 | -75.31385 | 12995 ft | 252 kts | 238° |
| 2026-05-09 20:50 | 5.87605 | -75.33073 | 12776 ft | 264 kts | 261° |
| 2026-05-09 20:50 | 5.87518 | -75.34948 | 12661 ft | 273 kts | 268° |
| 2026-05-09 20:50 | 5.87531 | -75.36856 | 12502 ft | 270 kts | 269° |
| 2026-05-09 20:51 | 5.87546 | -75.38729 | 12305 ft | 268 kts | 268° |
| 2026-05-09 20:51 | 5.87879 | -75.40562 | 12025 ft | 269 kts | 295° |
| 2026-05-09 20:51 | 5.89117 | -75.41937 | 11769 ft | 269 kts | 333° |
| 2026-05-09 20:51 | 5.90902 | -75.42367 | 11447 ft | 266 kts | 3° |
| 2026-05-09 20:52 | 5.92745 | -75.42315 | 11122 ft | 265 kts | 3° |
| 2026-05-09 20:52 | 5.94544 | -75.42237 | 10897 ft | 248 kts | 4° |
| 2026-05-09 20:52 | 5.96228 | -75.42176 | 10602 ft | 242 kts | 3° |
| 2026-05-09 20:52 | 5.97899 | -75.42180 | 10258 ft | 237 kts | 359° |
| 2026-05-09 20:53 | 5.99502 | -75.42205 | 9968 ft | 226 kts | 0° |
| 2026-05-09 20:53 | 6.01064 | -75.42215 | 9614 ft | 221 kts | 1° |
| 2026-05-09 20:53 | 6.02560 | -75.42262 | 9392 ft | 213 kts | 1° |
| 2026-05-09 20:53 | 6.04029 | -75.42232 | 9077 ft | 211 kts | 0° |
| 2026-05-09 20:54 | 6.05498 | -75.42237 | 8827 ft | 209 kts | 360° |
| 2026-05-09 20:54 | 6.06937 | -75.42249 | 8542 ft | 201 kts | 0° |
| 2026-05-09 20:54 | 6.08292 | -75.42258 | 8285 ft | 184 kts | 360° |
| 2026-05-09 20:54 | 6.09515 | -75.42266 | 8047 ft | 170 kts | 359° |
| 2026-05-09 20:55 | 6.10662 | -75.42275 | 7832 ft | 160 kts | 359° |
| 2026-05-09 20:55 | 6.11769 | -75.42281 | 7599 ft | 159 kts | 1° |
| 2026-05-09 20:55 | 6.12882 | -75.42289 | 7412 ft | 161 kts | 359° |
| 2026-05-09 20:55 | 6.14006 | -75.42295 | 7203 ft | 160 kts | 359° |
| 2026-05-09 20:56 | 6.15121 | -75.42306 | 6996 ft | 160 kts | 359° |
| 2026-05-09 20:56 | 6.16781 | -75.42316 | 6996 ft | 61 kts | 359° |
| 2026-05-09 20:56 | 6.17079 | -75.42394 | 7018 ft | 35 kts | 330° |
| 2026-05-09 20:57 | 6.17194 | -75.42501 | 7019 ft | 22 kts | 270° |
| 2026-05-09 20:57 | 6.17165 | -75.42615 | 7017 ft | 11 kts | 202° |
| 2026-05-09 20:57 | 6.17062 | -75.42632 | 7016 ft | 20 kts | 210° |
| 2026-05-09 20:57 | 6.16975 | -75.42703 | 7015 ft | 11 kts | 225° |
| 2026-05-09 20:58 | 6.16932 | -75.42766 | 7016 ft | 7 kts | 253° |
| 2026-05-09 20:58 | 6.16949 | -75.42793 | 7015 ft | 5 kts | 340° |
| 2026-05-09 20:58 | 6.16962 | -75.42796 | 7015 ft | 1 kts | 343° |
| 2026-05-09 20:58 | 6.16968 | -75.42798 | 7015 ft | 1 kts | 342° |
| 2026-05-09 20:59 | 6.16969 | -75.42799 | 7015 ft | 0 kts | 342° |